Crockett, CA

10:28 AM PST on January 25, 2015 (GMT -0800)
Glen Cove Hills | Change Station
CLOSE
Current Station
Personal Weather Station
Location: Vallejo, CA
Elevation: 248 ft
Nearby Weather Stations

Elev 248 ft 38.08 °N, 122.20 °W | Updated 55 seconds ago

Fog
Fog
42.8 °F
Feels Like 38 °F
N
8.0
Wind Variable Wind from ESE
Gusts 16.0 mph

Today
High -- | Low -- °F
--% Chance of Precip.
Yesterday
High -- | Low -- °F
Precip. -- in
7:18 AM 5:23 PM
Waxing Crescent, 34% visible
Pressure 30.16 in
Visibility 2.5 miles
Clouds Overcast 400 ft
Windchill 38 °F
Dew Point 42 °F
Humidity 95%
Rainfall 0.00 in
Snow Depth Not available.
UV 1.0 out of 12
Pollen 7.00 out of 12
Air Quality Not available.
Flu Activity Not available.
METAR KCCR 251753Z 08004KT 2 1/2SM BR OVC004 08/06 A3020 RMK AO2 SLP211 T00780056 10078 20067 53003

More Conditions Fewer Conditions

Pressure 30.16 in
Visibility 2.5 miles
Clouds Overcast 400 ft
Windchill 38 °F
Dew Point 42 °F
Humidity 95%
Rainfall 0.00 in
Snow Depth Not available.
UV 1.0 out of 12
Pollen 7.00 out of 12
Air Quality Not available.
Flu Activity Not available.
METAR KCCR 251753Z 08004KT 2 1/2SM BR OVC004 08/06 A3020 RMK AO2 SLP211 T00780056 10078 20067 53003

More Conditions Fewer Conditions

10-Day Weather Forecast

Almanac

Astronomy

Jan. 25, 2015 Rise Set
Actual Time
Civil Twilight
Nautical Twilight
Astronomical Twilight
Moon
Length of Visible Light
Length of Day
Tomorrow will be .
, % of the Moon is Illuminated

Today's Extremes

State Highs State Lows

Community

WunderPhotos

Upload Photos

1,790,012 photos uploaded!

WunderBlogs® & News

Nearby

Air Quality

  Air Quality AQ Index Pollutant
Not available.

Snow Depth

Station Depth Elevation

Earthquake Activity

City Distance Mag. Time & Date
Minimum magnitude displayed is 2.5.

Coastal Water Temperatures

Place Temperature

Nearby Weather Stations